Time;durP1;ratioP1;P1;durP2;ratioP2;P2;SDS_P1;SDS_P2;PMS_P1;PMS_P2;Temp;Humidity;BMP_temperature;BMP_pressure;BME280_temperature;BME280_humidity;BME280_pressure;Samples;Min_cycle;Max_cycle;Signal;HPM_P1;HPM_P2
2020/12/28 00:02:23;;;;;;;0.90;0.40;;;6.60;99.90;;;;;;1947540;71;21054;-72
2020/12/28 00:04:50;;;;;;;0.20;0.20;;;6.70;99.90;;;;;;1956522;71;21061;-72
2020/12/28 00:07:16;;;;;;;0.40;0.40;;;6.70;99.90;;;;;;1962916;71;21128;-73
2020/12/28 00:09:42;;;;;;;0.47;0.20;;;6.50;99.90;;;;;;1955582;71;21039;-72
2020/12/28 00:12:08;;;;;;;0.30;0.20;;;6.60;99.90;;;;;;1962376;71;21245;-73
2020/12/28 00:14:34;;;;;;;0.20;0.20;;;6.50;99.90;;;;;;1971807;70;21124;-73
2020/12/28 00:17:00;;;;;;;0.60;0.30;;;6.40;99.90;;;;;;1959256;70;21058;-73
2020/12/28 00:19:26;;;;;;;0.30;0.30;;;6.40;99.90;;;;;;1951110;70;21128;-73
2020/12/28 00:21:52;;;;;;;0.47;0.13;;;6.40;99.90;;;;;;1942519;70;21043;-73
2020/12/28 00:24:18;;;;;;;0.50;0.40;;;6.40;99.90;;;;;;1952791;70;21058;-72
2020/12/28 00:26:45;;;;;;;0.30;0.30;;;6.40;99.90;;;;;;1960949;71;21607;-73
2020/12/28 00:29:13;;;;;;;0.88;0.20;;;6.30;99.90;;;;;;1984230;70;21465;-73
2020/12/28 00:31:42;;;;;;;0.33;0.33;;;6.20;99.90;;;;;;1951237;71;21054;-72
2020/12/28 00:34:08;;;;;;;0.57;0.40;;;6.20;99.90;;;;;;1953968;71;21522;-72
2020/12/28 00:36:34;;;;;;;0.20;0.20;;;6.20;99.90;;;;;;1968189;71;21050;-73
2020/12/28 00:39:00;;;;;;;0.33;0.33;;;6.20;99.90;;;;;;1972990;70;21023;-73
2020/12/28 00:41:26;;;;;;;0.25;0.25;;;6.10;99.90;;;;;;1956429;70;21183;-72
2020/12/28 00:43:52;;;;;;;0.20;0.20;;;6.10;99.90;;;;;;1953875;71;21119;-73
2020/12/28 00:46:18;;;;;;;1.10;0.35;;;6.20;99.90;;;;;;1950662;71;21238;-73
2020/12/28 00:48:44;;;;;;;0.57;0.30;;;6.20;99.90;;;;;;1952957;71;21055;-72
2020/12/28 00:51:11;;;;;;;0.30;0.30;;;6.20;99.90;;;;;;1948237;71;21023;-73
2020/12/28 00:53:37;;;;;;;0.30;0.30;;;6.20;99.90;;;;;;1985304;70;21058;-73
2020/12/28 00:56:03;;;;;;;0.30;0.30;;;6.30;99.90;;;;;;1986717;71;21049;-73
2020/12/28 00:58:29;;;;;;;0.30;0.30;;;6.30;99.90;;;;;;1991641;70;21135;-73
2020/12/28 01:00:55;;;;;;;0.20;0.20;;;6.30;99.90;;;;;;1990076;71;21711;-73
2020/12/28 01:03:21;;;;;;;1.17;0.62;;;6.30;99.90;;;;;;1988313;71;21501;-74
2020/12/28 01:05:47;;;;;;;0.82;0.40;;;6.30;99.90;;;;;;1981749;71;21520;-73
2020/12/28 01:08:13;;;;;;;0.33;0.33;;;6.30;99.90;;;;;;1947525;71;21675;-73
2020/12/28 01:10:40;;;;;;;1.37;0.45;;;6.30;99.90;;;;;;1933701;72;21066;-73
2020/12/28 01:13:06;;;;;;;0.72;0.30;;;6.30;99.90;;;;;;1932615;71;21107;-73
2020/12/28 01:15:32;;;;;;;0.42;0.30;;;6.40;99.90;;;;;;1935596;73;21038;-73
2020/12/28 01:17:58;;;;;;;0.30;0.30;;;6.40;99.90;;;;;;1936114;72;21071;-73
2020/12/28 01:20:24;;;;;;;0.40;0.23;;;6.40;99.90;;;;;;1959066;70;21128;-73
2020/12/28 01:22:50;;;;;;;0.30;0.23;;;6.50;99.90;;;;;;1986101;71;21129;-73
2020/12/28 01:25:16;;;;;;;0.20;0.20;;;6.40;99.90;;;;;;1989098;70;21128;-73
2020/12/28 01:27:42;;;;;;;0.42;0.28;;;6.30;99.90;;;;;;1984320;71;21104;-73
2020/12/28 01:30:09;;;;;;;0.23;0.23;;;6.30;99.90;;;;;;1990086;71;21032;-73
2020/12/28 01:32:35;;;;;;;0.20;0.20;;;6.40;99.90;;;;;;1989181;71;21411;-73
2020/12/28 01:35:01;;;;;;;0.80;0.37;;;6.40;99.90;;;;;;1973287;70;21693;-73
2020/12/28 01:37:27;;;;;;;0.20;0.20;;;6.40;99.90;;;;;;1921095;72;21144;-74
2020/12/28 01:39:53;;;;;;;0.30;0.30;;;6.40;99.90;;;;;;1929559;71;21067;-73
2020/12/28 01:42:19;;;;;;;0.10;0.10;;;6.40;99.90;;;;;;1942031;72;21054;-73
2020/12/28 01:44:45;;;;;;;0.10;0.10;;;6.50;99.90;;;;;;1960622;71;21049;-73
2020/12/28 01:47:11;;;;;;;0.10;0.10;;;6.50;99.90;;;;;;1963860;70;21027;-73
2020/12/28 01:49:38;;;;;;;0.20;0.20;;;6.50;99.90;;;;;;1957685;72;21051;-74
2020/12/28 01:52:04;;;;;;;0.20;0.20;;;6.50;99.90;;;;;;1967772;71;21096;-74
2020/12/28 01:54:30;;;;;;;0.20;0.20;;;6.50;99.90;;;;;;1934435;72;21058;-73
2020/12/28 01:56:57;;;;;;;0.13;0.13;;;6.50;99.90;;;;;;1936087;72;21063;-73
2020/12/28 01:59:23;;;;;;;0.28;0.20;;;6.40;99.90;;;;;;1940877;72;21078;-74
2020/12/28 02:01:49;;;;;;;0.20;0.20;;;6.40;99.90;;;;;;1947845;73;21098;-74
2020/12/28 02:04:15;;;;;;;0.20;0.20;;;6.30;99.90;;;;;;1952985;72;21162;-74
2020/12/28 02:06:41;;;;;;;0.10;0.10;;;6.30;99.90;;;;;;1949421;71;21117;-74
2020/12/28 02:09:07;;;;;;;0.28;0.20;;;6.30;99.90;;;;;;1946345;72;21068;-70
2020/12/28 02:11:33;;;;;;;1.47;0.20;;;6.20;99.90;;;;;;1946953;72;21125;-72
2020/12/28 02:14:00;;;;;;;0.10;0.10;;;6.20;99.90;;;;;;1949092;72;21070;-71
2020/12/28 02:16:26;;;;;;;0.25;0.20;;;6.10;99.90;;;;;;1942040;71;21467;-74
2020/12/28 02:18:52;;;;;;;0.10;0.10;;;6.10;99.90;;;;;;1931573;72;21425;-71
2020/12/28 02:21:18;;;;;;;0.57;0.20;;;6.10;99.90;;;;;;1933371;73;21567;-72
2020/12/28 02:23:44;;;;;;;0.57;0.20;;;6.00;99.90;;;;;;1935426;73;21472;-74
2020/12/28 02:26:10;;;;;;;0.30;0.30;;;6.00;99.90;;;;;;1937979;73;21062;-72
2020/12/28 02:28:36;;;;;;;1.25;0.30;;;6.00;99.90;;;;;;1941774;72;21059;-72
2020/12/28 02:31:02;;;;;;;0.20;0.20;;;6.00;99.90;;;;;;1933563;72;21059;-72
2020/12/28 02:33:29;;;;;;;0.10;0.10;;;5.90;99.90;;;;;;1943342;72;21027;-72
2020/12/28 02:35:55;;;;;;;0.10;0.10;;;5.90;99.90;;;;;;1948399;72;21058;-72
2020/12/28 02:38:21;;;;;;;0.30;0.30;;;5.80;99.90;;;;;;1955593;72;21619;-73
2020/12/28 02:40:47;;;;;;;0.10;0.10;;;5.80;99.90;;;;;;1945166;72;21189;-72
2020/12/28 02:43:13;;;;;;;0.30;0.30;;;5.80;99.90;;;;;;1941188;72;21125;-72
2020/12/28 02:45:39;;;;;;;0.10;0.10;;;5.70;99.90;;;;;;1951164;71;21058;-72
2020/12/28 02:48:08;;;;;;;0.23;0.20;;;5.70;99.90;;;;;;1946136;72;21037;-72
2020/12/28 02:50:33;;;;;;;0.25;0.25;;;5.70;99.90;;;;;;1962392;71;21084;-72
2020/12/28 02:52:59;;;;;;;0.33;0.30;;;5.60;99.90;;;;;;1969502;71;21055;-72
2020/12/28 02:55:25;;;;;;;0.10;0.10;;;5.70;99.90;;;;;;1961111;72;21108;-72
2020/12/28 02:57:51;;;;;;;0.40;0.10;;;5.60;99.90;;;;;;1964348;71;21058;-72
2020/12/28 03:00:18;;;;;;;0.15;0.15;;;5.70;99.90;;;;;;1948470;72;21160;-72
2020/12/28 03:02:44;;;;;;;0.10;0.10;;;5.60;99.90;;;;;;1956741;71;21049;-72
2020/12/28 03:05:10;;;;;;;0.10;0.10;;;5.60;99.90;;;;;;1959223;71;21172;-72
2020/12/28 03:07:36;;;;;;;0.17;0.17;;;5.60;99.90;;;;;;1951456;71;21073;-72
2020/12/28 03:10:02;;;;;;;0.10;0.10;;;5.60;99.90;;;;;;1957315;70;21454;-72
2020/12/28 03:12:28;;;;;;;0.53;0.20;;;5.60;99.90;;;;;;1958932;70;21461;-71
2020/12/28 03:14:54;;;;;;;0.10;0.10;;;5.50;99.90;;;;;;1951623;71;21485;-72
2020/12/28 03:17:20;;;;;;;0.20;0.20;;;5.50;99.90;;;;;;1961695;71;21475;-73
2020/12/28 03:19:46;;;;;;;0.88;0.20;;;5.50;99.90;;;;;;1954385;71;21058;-72
2020/12/28 03:22:13;;;;;;;0.68;0.30;;;5.50;99.90;;;;;;1963605;70;21059;-72
2020/12/28 03:24:39;;;;;;;0.30;0.30;;;5.40;99.90;;;;;;1956903;71;21127;-72
2020/12/28 03:27:05;;;;;;;0.20;0.20;;;5.50;99.90;;;;;;1963412;71;21050;-72
2020/12/28 03:29:31;;;;;;;0.40;0.20;;;5.50;99.90;;;;;;1955748;71;21035;-71
2020/12/28 03:31:57;;;;;;;0.35;0.30;;;5.60;99.90;;;;;;1937682;71;21123;-71
2020/12/28 03:34:23;;;;;;;0.20;0.20;;;5.60;99.90;;;;;;1944526;73;21058;-71
2020/12/28 03:36:49;;;;;;;0.37;0.10;;;5.50;99.90;;;;;;1927942;72;21235;-71
2020/12/28 03:39:15;;;;;;;1.45;0.20;;;5.50;99.90;;;;;;1960907;70;21124;-71
2020/12/28 03:41:42;;;;;;;0.33;0.30;;;5.50;99.90;;;;;;1973785;71;21062;-71
2020/12/28 03:44:08;;;;;;;0.20;0.20;;;5.50;99.90;;;;;;1971251;71;21032;-71
2020/12/28 03:46:34;;;;;;;0.70;0.20;;;5.40;99.90;;;;;;1965272;71;21062;-72
2020/12/28 03:49:00;;;;;;;0.30;0.30;;;5.50;99.90;;;;;;1967862;71;21451;-70
2020/12/28 03:51:26;;;;;;;1.27;0.20;;;5.40;99.90;;;;;;1962856;71;21479;-73
2020/12/28 03:53:52;;;;;;;0.47;0.42;;;5.50;99.90;;;;;;1942867;71;21457;-72
2020/12/28 03:56:18;;;;;;;0.25;0.25;;;5.50;99.90;;;;;;1949117;71;21477;-71
2020/12/28 03:58:44;;;;;;;0.90;0.40;;;5.50;99.90;;;;;;1959378;71;21015;-71
2020/12/28 04:01:10;;;;;;;0.10;0.10;;;5.50;99.90;;;;;;1991004;71;21069;-72
2020/12/28 04:03:37;;;;;;;0.20;0.20;;;5.50;99.90;;;;;;1970319;71;21165;-72
2020/12/28 04:06:04;;;;;;;0.47;0.20;;;5.50;99.90;;;;;;1959297;71;21296;-72
2020/12/28 04:08:30;;;;;;;0.20;0.20;;;5.40;99.90;;;;;;1953605;71;21521;-72
2020/12/28 04:10:56;;;;;;;0.20;0.20;;;5.30;99.90;;;;;;1974715;70;21523;-72
2020/12/28 04:13:22;;;;;;;0.20;0.17;;;5.40;99.90;;;;;;1969693;71;21474;-72
2020/12/28 04:15:48;;;;;;;0.30;0.20;;;5.30;99.90;;;;;;1958582;71;21052;-73
2020/12/28 04:18:14;;;;;;;1.17;0.23;;;5.30;99.90;;;;;;1978943;71;21123;-72
2020/12/28 04:20:41;;;;;;;0.50;0.30;;;5.20;99.90;;;;;;1939092;70;21066;-72
2020/12/28 04:23:07;;;;;;;0.10;0.10;;;5.10;99.90;;;;;;1987391;71;21054;-72
2020/12/28 04:25:33;;;;;;;0.68;0.40;;;5.10;99.90;;;;;;1986020;71;21062;-71
2020/12/28 04:27:59;;;;;;;0.20;0.20;;;5.20;99.90;;;;;;1989346;70;21027;-71
2020/12/28 04:30:25;;;;;;;0.65;0.30;;;5.10;99.90;;;;;;1990385;71;21038;-71
2020/12/28 04:32:51;;;;;;;0.20;0.20;;;5.00;99.90;;;;;;1990174;70;21062;-72
2020/12/28 04:35:17;;;;;;;0.17;0.15;;;5.10;99.90;;;;;;1989216;71;21176;-71
2020/12/28 04:37:43;;;;;;;0.20;0.20;;;5.00;99.90;;;;;;1992761;70;21128;-72
2020/12/28 04:40:09;;;;;;;0.10;0.10;;;4.90;99.90;;;;;;1989629;70;21058;-72
2020/12/28 04:42:36;;;;;;;0.30;0.30;;;5.00;99.90;;;;;;1968135;70;21030;-72
2020/12/28 04:45:02;;;;;;;0.33;0.28;;;4.80;99.90;;;;;;1960549;71;21214;-73
2020/12/28 04:47:28;;;;;;;0.45;0.10;;;4.80;99.90;;;;;;1944294;71;21571;-72
2020/12/28 04:49:54;;;;;;;0.33;0.30;;;5.00;99.90;;;;;;1949139;71;21451;-72
2020/12/28 04:52:20;;;;;;;0.75;0.28;;;5.00;99.90;;;;;;1961019;70;21535;-72
2020/12/28 04:54:46;;;;;;;0.20;0.20;;;4.80;99.90;;;;;;1927103;72;21068;-71
2020/12/28 04:57:12;;;;;;;0.33;0.25;;;4.80;99.90;;;;;;1935190;73;21541;-72
2020/12/28 04:59:38;;;;;;;0.20;0.20;;;4.80;99.90;;;;;;1947229;72;21131;-72
2020/12/28 05:02:06;;;;;;;0.30;0.30;;;4.70;99.90;;;;;;1988362;71;21168;-72
2020/12/28 05:04:32;;;;;;;0.13;0.13;;;4.70;99.90;;;;;;1949376;72;21482;-72
2020/12/28 05:06:58;;;;;;;0.20;0.20;;;4.60;99.90;;;;;;1975277;71;21734;-72
2020/12/28 05:09:24;;;;;;;1.52;0.35;;;4.70;99.90;;;;;;1990783;71;21516;-68
2020/12/28 05:11:51;;;;;;;0.40;0.40;;;4.70;99.90;;;;;;1989839;71;21049;-69
2020/12/28 05:14:17;;;;;;;0.25;0.25;;;4.60;99.90;;;;;;1983658;71;21076;-68
2020/12/28 05:16:43;;;;;;;1.75;0.30;;;4.50;99.90;;;;;;1990376;71;21200;-68
2020/12/28 05:19:09;;;;;;;0.40;0.40;;;4.60;99.90;;;;;;1986234;71;21058;-69
2020/12/28 05:21:35;;;;;;;0.68;0.53;;;4.60;99.90;;;;;;1986016;71;21053;-72
2020/12/28 05:24:01;;;;;;;4.22;0.70;;;4.60;99.90;;;;;;1971327;70;21053;-71
2020/12/28 05:26:27;;;;;;;0.30;0.30;;;4.50;99.90;;;;;;1939456;73;21146;-72
2020/12/28 05:28:54;;;;;;;1.87;0.40;;;4.50;99.90;;;;;;1927867;72;21420;-71
2020/12/28 05:31:20;;;;;;;0.30;0.30;;;4.50;99.90;;;;;;1926000;73;21186;-71
2020/12/28 05:33:46;;;;;;;0.50;0.50;;;4.60;99.90;;;;;;1933624;72;21054;-72
2020/12/28 05:36:12;;;;;;;0.60;0.60;;;4.60;99.90;;;;;;1925839;72;21221;-72
2020/12/28 05:38:38;;;;;;;0.60;0.42;;;4.60;99.90;;;;;;1922730;73;21059;-72
2020/12/28 05:41:05;;;;;;;1.30;0.57;;;4.70;99.90;;;;;;1933706;72;21137;-72
2020/12/28 05:43:31;;;;;;;5.67;0.65;;;4.60;99.90;;;;;;1991603;71;21204;-72
2020/12/28 05:45:57;;;;;;;0.42;0.42;;;4.60;99.90;;;;;;1986887;71;21063;-73
2020/12/28 05:48:23;;;;;;;1.45;0.60;;;4.60;99.90;;;;;;1958046;71;21036;-72
2020/12/28 05:50:50;;;;;;;0.62;0.53;;;4.70;99.90;;;;;;1951692;71;21130;-72
2020/12/28 05:53:16;;;;;;;0.35;0.35;;;4.70;99.90;;;;;;1959022;71;21061;-72
2020/12/28 05:55:42;;;;;;;0.30;0.30;;;4.70;99.90;;;;;;1990830;71;21257;-73
2020/12/28 05:58:08;;;;;;;0.20;0.20;;;4.80;99.90;;;;;;1982753;71;21168;-73
2020/12/28 06:00:34;;;;;;;0.47;0.23;;;4.90;99.90;;;;;;1983747;71;21177;-73
2020/12/28 06:03:00;;;;;;;0.35;0.30;;;4.90;99.90;;;;;;1989534;70;21019;-73
2020/12/28 06:05:26;;;;;;;0.20;0.20;;;4.90;99.90;;;;;;1993291;71;21115;-73
2020/12/28 06:07:52;;;;;;;0.72;0.50;;;5.00;99.90;;;;;;1944471;71;21124;-73
2020/12/28 06:10:18;;;;;;;0.47;0.40;;;5.00;99.90;;;;;;1966398;71;21136;-74
2020/12/28 06:12:45;;;;;;;0.68;0.30;;;5.00;99.90;;;;;;1962009;71;21062;-73
2020/12/28 06:15:11;;;;;;;0.30;0.30;;;5.00;99.90;;;;;;1943137;72;21496;-73
2020/12/28 06:17:37;;;;;;;0.20;0.20;;;5.00;99.90;;;;;;1929879;73;21482;-73
2020/12/28 06:20:03;;;;;;;0.30;0.30;;;5.10;99.90;;;;;;1927748;71;21136;-72
2020/12/28 06:22:29;;;;;;;0.28;0.28;;;5.10;99.90;;;;;;1955808;71;21458;-73
2020/12/28 06:24:55;;;;;;;1.50;0.75;;;5.10;99.90;;;;;;1971960;71;21058;-73
2020/12/28 06:27:21;;;;;;;0.53;0.53;;;5.10;99.90;;;;;;1973855;70;21119;-72
2020/12/28 06:29:47;;;;;;;1.55;0.50;;;5.10;99.90;;;;;;1944142;71;21043;-73
2020/12/28 06:32:14;;;;;;;0.60;0.60;;;5.10;99.90;;;;;;1988748;71;21128;-73
2020/12/28 06:34:40;;;;;;;4.80;1.15;;;5.10;99.90;;;;;;1973780;72;21115;-73
2020/12/28 06:37:06;;;;;;;4.45;1.00;;;5.10;99.90;;;;;;1951536;71;21140;-73
2020/12/28 06:39:32;;;;;;;0.98;0.85;;;5.10;99.90;;;;;;1972358;70;21057;-72
2020/12/28 06:41:58;;;;;;;0.93;0.57;;;5.10;99.90;;;;;;1966966;70;21167;-72
2020/12/28 06:44:24;;;;;;;0.70;0.53;;;5.10;99.90;;;;;;1953661;70;21027;-72
2020/12/28 06:46:50;;;;;;;0.40;0.40;;;5.10;99.90;;;;;;1943116;71;21148;-73
2020/12/28 06:49:16;;;;;;;0.57;0.30;;;5.10;99.90;;;;;;1995032;71;21058;-72
2020/12/28 06:51:43;;;;;;;0.45;0.40;;;5.10;99.90;;;;;;1945397;70;21147;-73
2020/12/28 06:54:09;;;;;;;1.45;0.90;;;5.10;99.90;;;;;;1934305;72;21549;-73
2020/12/28 06:56:35;;;;;;;1.70;0.50;;;5.00;99.90;;;;;;1978864;71;21477;-73
2020/12/28 06:59:01;;;;;;;0.62;0.60;;;5.00;99.90;;;;;;1938801;71;21446;-73
2020/12/28 07:01:27;;;;;;;0.85;0.50;;;4.90;99.90;;;;;;1958256;70;21661;-73
2020/12/28 07:03:53;;;;;;;1.15;0.60;;;4.80;99.90;;;;;;1954126;71;21161;-73
2020/12/28 07:06:19;;;;;;;0.50;0.50;;;4.90;99.90;;;;;;1932262;71;21201;-73
2020/12/28 07:08:45;;;;;;;0.47;0.47;;;5.00;99.90;;;;;;1988459;71;21202;-73
2020/12/28 07:11:11;;;;;;;0.85;0.60;;;5.00;99.90;;;;;;1933443;72;21036;-73
2020/12/28 07:13:38;;;;;;;1.72;0.60;;;5.10;99.90;;;;;;1976738;70;21059;-73
2020/12/28 07:16:04;;;;;;;0.68;0.60;;;5.10;99.90;;;;;;1966188;70;21172;-73
2020/12/28 07:18:30;;;;;;;0.50;0.50;;;5.10;99.90;;;;;;1943748;72;21051;-74
2020/12/28 07:20:56;;;;;;;1.85;0.78;;;4.90;99.90;;;;;;1941138;73;21079;-73
2020/12/28 07:23:22;;;;;;;0.60;0.60;;;4.90;99.90;;;;;;1976437;71;21105;-73
2020/12/28 07:25:48;;;;;;;1.40;0.60;;;4.80;99.90;;;;;;1965027;71;21036;-73
2020/12/28 07:28:14;;;;;;;0.40;0.40;;;4.80;99.90;;;;;;1960736;71;21054;-74
2020/12/28 07:30:40;;;;;;;0.78;0.60;;;4.80;99.90;;;;;;1955378;71;21066;-72
2020/12/28 07:33:07;;;;;;;1.05;0.82;;;4.90;99.90;;;;;;1957518;70;21130;-73
2020/12/28 07:35:33;;;;;;;0.75;0.62;;;4.90;99.90;;;;;;1948795;71;21448;-73
2020/12/28 07:37:59;;;;;;;5.05;0.68;;;4.90;99.90;;;;;;1949989;71;21465;-73
2020/12/28 07:40:25;;;;;;;3.25;1.17;;;4.80;99.90;;;;;;1937516;73;21446;-73
2020/12/28 07:42:51;;;;;;;1.15;0.70;;;4.80;99.90;;;;;;1954004;71;21053;-73
2020/12/28 07:45:17;;;;;;;0.50;0.50;;;4.70;99.90;;;;;;1952922;71;21049;-73
2020/12/28 07:47:43;;;;;;;0.95;0.70;;;4.70;99.90;;;;;;1941350;71;21189;-74
2020/12/28 07:50:09;;;;;;;1.00;0.60;;;4.70;99.90;;;;;;1976485;70;21058;-73
2020/12/28 07:52:36;;;;;;;2.70;0.90;;;4.60;99.90;;;;;;1949016;71;21111;-73
2020/12/28 07:55:02;;;;;;;0.88;0.57;;;4.70;99.90;;;;;;1957030;70;21117;-73
2020/12/28 07:57:28;;;;;;;0.70;0.62;;;4.70;99.90;;;;;;1947113;71;21107;-73
2020/12/28 07:59:54;;;;;;;0.70;0.70;;;4.70;99.90;;;;;;1959957;71;21131;-73
2020/12/28 08:02:20;;;;;;;1.52;0.47;;;4.70;99.90;;;;;;1942535;72;21120;-73
2020/12/28 08:04:46;;;;;;;1.05;0.40;;;4.70;99.90;;;;;;1946498;73;21149;-73
2020/12/28 08:07:12;;;;;;;0.72;0.40;;;4.70;99.90;;;;;;1959910;71;21018;-73
2020/12/28 08:09:38;;;;;;;0.25;0.20;;;4.60;99.90;;;;;;1975441;70;21183;-72
2020/12/28 08:12:04;;;;;;;0.80;0.30;;;4.60;99.90;;;;;;1953914;71;21253;-74
2020/12/28 08:14:31;;;;;;;4.00;0.30;;;4.60;99.90;;;;;;1987187;71;21591;-72
2020/12/28 08:16:57;;;;;;;0.35;0.35;;;4.60;99.90;;;;;;1988310;71;21465;-72
2020/12/28 08:19:23;;;;;;;0.80;0.37;;;4.80;99.90;;;;;;1989189;71;21460;-73
2020/12/28 08:21:49;;;;;;;0.30;0.30;;;4.80;99.90;;;;;;1988781;71;21051;-73
2020/12/28 08:24:15;;;;;;;0.28;0.28;;;4.90;99.90;;;;;;1980949;71;21028;-73
2020/12/28 08:26:41;;;;;;;0.47;0.40;;;5.00;99.90;;;;;;1989438;71;21127;-73
2020/12/28 08:29:08;;;;;;;1.12;0.60;;;5.00;99.90;;;;;;1942766;73;21141;-73
2020/12/28 08:31:34;;;;;;;1.85;0.88;;;5.00;99.90;;;;;;1985264;71;21199;-74
2020/12/28 08:34:00;;;;;;;2.15;1.10;;;5.10;99.90;;;;;;1990182;71;21102;-73
2020/12/28 08:36:26;;;;;;;1.62;0.93;;;5.10;99.90;;;;;;1988390;71;21058;-72
2020/12/28 08:38:53;;;;;;;0.65;0.45;;;5.10;99.90;;;;;;1989614;70;21096;-72
2020/12/28 08:41:19;;;;;;;0.85;0.50;;;5.10;99.90;;;;;;1963951;71;21063;-74
2020/12/28 08:43:45;;;;;;;0.93;0.50;;;5.10;99.90;;;;;;1976737;71;21152;-74
2020/12/28 08:46:11;;;;;;;0.20;0.20;;;5.10;99.90;;;;;;1956816;70;21027;-74
2020/12/28 08:48:37;;;;;;;0.40;0.30;;;5.20;99.90;;;;;;1970443;70;21483;-77
2020/12/28 08:51:03;;;;;;;0.55;0.40;;;5.20;99.90;;;;;;1948623;71;21504;-77
2020/12/28 08:53:29;;;;;;;0.40;0.40;;;5.10;99.90;;;;;;1953279;71;21482;-76
2020/12/28 08:55:55;;;;;;;0.30;0.30;;;5.10;99.90;;;;;;1957193;71;21045;-76
2020/12/28 08:58:22;;;;;;;3.33;0.70;;;5.10;99.90;;;;;;1956450;70;21120;-75
2020/12/28 09:00:48;;;;;;;0.50;0.50;;;5.00;99.90;;;;;;1948608;71;21034;-75
2020/12/28 09:03:14;;;;;;;1.27;0.50;;;5.10;99.90;;;;;;1966565;71;21107;-75
2020/12/28 09:05:40;;;;;;;2.33;0.62;;;5.10;99.90;;;;;;1932302;72;21129;-75
2020/12/28 09:08:06;;;;;;;1.15;0.78;;;5.10;99.90;;;;;;1973906;71;21059;-75
2020/12/28 09:10:32;;;;;;;1.55;0.82;;;5.10;99.90;;;;;;1964850;71;21058;-75
2020/12/28 09:12:58;;;;;;;1.22;0.98;;;5.10;99.90;;;;;;1972068;72;21124;-75
2020/12/28 09:15:24;;;;;;;1.32;0.95;;;5.10;99.90;;;;;;1929415;72;21150;-75
2020/12/28 09:17:50;;;;;;;1.50;0.80;;;5.10;99.90;;;;;;1948415;73;21142;-75
2020/12/28 09:20:17;;;;;;;2.52;1.65;;;5.10;99.90;;;;;;1962632;71;21049;-75
2020/12/28 09:22:43;;;;;;;1.12;1.02;;;5.20;99.90;;;;;;1966236;71;21116;-76
2020/12/28 09:25:09;;;;;;;1.55;1.37;;;5.30;99.90;;;;;;1952232;72;21067;-76
2020/12/28 09:27:35;;;;;;;2.60;1.00;;;5.30;99.90;;;;;;1984629;71;21422;-76
2020/12/28 09:30:06;;;;;;;1.10;0.62;;;5.40;99.90;;;;;;1986196;71;21652;-75
2020/12/28 09:32:29;;;;;;;1.20;1.00;;;5.40;99.90;;;;;;1942259;71;21055;-74
2020/12/28 09:34:55;;;;;;;0.60;0.60;;;5.40;99.90;;;;;;1956139;71;21053;-74
2020/12/28 09:37:21;;;;;;;1.22;0.85;;;5.40;99.90;;;;;;1957050;71;21102;-75
2020/12/28 09:39:47;;;;;;;1.57;1.10;;;5.40;99.90;;;;;;1935022;72;22525;-77
2020/12/28 09:42:13;;;;;;;1.42;1.20;;;5.40;99.90;;;;;;1987092;71;21587;-76
2020/12/28 09:44:39;;;;;;;3.58;1.10;;;5.40;99.90;;;;;;1990719;71;21500;-78
2020/12/28 09:47:06;;;;;;;2.75;0.88;;;5.40;99.90;;;;;;1991478;71;21630;-78
2020/12/28 09:49:33;;;;;;;1.07;0.78;;;5.40;99.90;;;;;;1985982;70;21074;-80
2020/12/28 09:51:59;;;;;;;1.82;0.85;;;5.50;99.90;;;;;;1987820;72;21501;-79
2020/12/28 09:54:26;;;;;;;3.08;1.15;;;5.50;99.90;;;;;;1986933;71;21104;-79
2020/12/28 09:56:52;;;;;;;6.53;1.60;;;5.50;99.90;;;;;;1990974;71;21481;-77
2020/12/28 09:59:20;;;;;;;2.35;1.15;;;5.50;99.90;;;;;;1988798;72;21554;-78
2020/12/28 10:01:46;;;;;;;9.40;1.80;;;5.50;99.90;;;;;;1986437;70;21062;-79
2020/12/28 10:04:14;;;;;;;2.52;1.77;;;5.50;99.90;;;;;;1988313;70;21136;-87
2020/12/28 10:06:40;;;;;;;3.33;1.40;;;5.50;99.90;;;;;;1969162;70;21156;-79
2020/12/28 10:09:06;;;;;;;2.37;1.30;;;5.50;99.90;;;;;;1953440;70;21496;-78
2020/12/28 10:11:33;;;;;;;2.50;0.98;;;5.40;99.90;;;;;;1968985;70;21422;-84
2020/12/28 10:13:59;;;;;;;1.57;1.07;;;5.40;99.90;;;;;;1933094;71;21574;-79
2020/12/28 10:16:27;;;;;;;2.22;1.20;;;5.40;99.90;;;;;;1987147;70;21034;-77
2020/12/28 10:18:55;;;;;;;1.12;1.02;;;5.50;99.90;;;;;;1949167;70;21065;-76
2020/12/28 10:21:21;;;;;;;1.20;1.10;;;5.50;99.90;;;;;;1960875;71;21480;-76
2020/12/28 10:23:48;;;;;;;2.02;1.05;;;5.40;99.90;;;;;;1958572;70;21171;-76
2020/12/28 10:26:14;;;;;;;1.02;1.00;;;5.50;99.90;;;;;;1939281;71;21120;-75
2020/12/28 10:28:40;;;;;;;16.07;5.55;;;5.60;99.90;;;;;;1949672;72;21076;-74
2020/12/28 10:31:06;;;;;;;2.62;1.70;;;5.60;99.90;;;;;;1923948;73;21058;-76
2020/12/28 10:33:32;;;;;;;1.82;1.40;;;5.60;99.90;;;;;;1949211;71;21053;-77
2020/12/28 10:35:58;;;;;;;12.85;2.15;;;5.60;99.90;;;;;;1958542;70;21027;-76
2020/12/28 10:38:24;;;;;;;2.47;1.95;;;5.70;99.90;;;;;;1974926;70;21146;-76
2020/12/28 10:40:51;;;;;;;2.47;1.67;;;5.70;99.90;;;;;;1942258;71;21193;-76
2020/12/28 10:43:17;;;;;;;1.30;1.20;;;5.80;99.90;;;;;;1939896;72;21070;-74
2020/12/28 10:45:43;;;;;;;2.58;1.25;;;5.80;99.90;;;;;;1943085;72;21066;-76
2020/12/28 10:48:09;;;;;;;1.50;1.40;;;5.90;99.90;;;;;;1990435;71;21029;-78
2020/12/28 10:50:36;;;;;;;1.67;1.40;;;5.90;99.90;;;;;;1993881;70;21106;-75
2020/12/28 10:53:02;;;;;;;2.75;1.55;;;6.00;99.90;;;;;;1990272;71;21145;-76
2020/12/28 10:55:28;;;;;;;2.98;1.47;;;5.90;99.90;;;;;;1990546;71;21128;-75
2020/12/28 10:57:54;;;;;;;2.58;1.60;;;5.90;99.90;;;;;;1986229;71;21140;-75
2020/12/28 11:00:20;;;;;;;2.55;1.80;;;5.80;99.90;;;;;;1990947;71;21038;-74
2020/12/28 11:02:46;;;;;;;1.75;1.42;;;5.90;99.90;;;;;;1983940;70;21059;-72
2020/12/28 11:05:12;;;;;;;3.08;1.47;;;5.80;99.90;;;;;;1992334;71;21214;-74
2020/12/28 11:07:38;;;;;;;2.90;1.70;;;5.90;99.90;;;;;;1993072;71;21430;-71
2020/12/28 11:10:05;;;;;;;1.75;1.45;;;6.00;99.90;;;;;;1991239;71;21466;-73
2020/12/28 11:12:31;;;;;;;2.83;1.40;;;6.00;99.90;;;;;;1992488;71;21481;-72
2020/12/28 11:14:57;;;;;;;1.57;1.47;;;5.90;99.90;;;;;;1990382;71;21493;-73
2020/12/28 11:17:23;;;;;;;1.67;1.27;;;5.70;99.90;;;;;;1937516;71;21128;-72
2020/12/28 11:19:49;;;;;;;3.30;1.30;;;5.70;99.90;;;;;;1954086;71;21059;-72
2020/12/28 11:22:15;;;;;;;2.62;1.57;;;5.70;99.90;;;;;;1938903;71;21030;-72
2020/12/28 11:24:41;;;;;;;3.10;2.22;;;5.60;99.90;;;;;;1967697;71;21058;-72
2020/12/28 11:27:07;;;;;;;3.12;1.40;;;5.60;99.90;;;;;;1946061;70;21128;-72
2020/12/28 11:29:33;;;;;;;2.70;1.70;;;5.50;99.90;;;;;;1939783;71;21061;-74
2020/12/28 11:32:01;;;;;;;2.37;1.82;;;5.70;99.90;;;;;;1964922;71;21267;-74
2020/12/28 11:34:27;;;;;;;3.60;2.00;;;5.80;99.90;;;;;;1926064;72;21181;-74
2020/12/28 11:36:53;;;;;;;5.33;1.98;;;5.80;99.90;;;;;;1933852;72;21146;-74
2020/12/28 11:39:19;;;;;;;2.62;1.92;;;5.80;99.90;;;;;;1953888;71;21066;-73
2020/12/28 11:41:46;;;;;;;4.35;2.42;;;5.90;99.90;;;;;;1926524;73;21058;-73
2020/12/28 11:44:14;;;;;;;3.67;2.37;;;5.70;99.90;;;;;;1952547;72;21128;-74
2020/12/28 11:46:40;;;;;;;6.95;2.42;;;5.80;99.90;;;;;;1953119;71;21170;-72
2020/12/28 11:49:07;;;;;;;4.75;2.60;;;5.80;99.90;;;;;;1990710;71;21139;-72
2020/12/28 11:51:33;;;;;;;4.80;2.50;;;5.80;99.90;;;;;;1991238;71;21067;-74
2020/12/28 11:53:59;;;;;;;4.10;2.92;;;5.80;99.90;;;;;;1996123;71;21050;-72
2020/12/28 11:56:25;;;;;;;6.12;3.40;;;6.00;99.90;;;;;;1955780;71;21054;-71
2020/12/28 11:58:51;;;;;;;5.35;3.60;;;6.00;99.90;;;;;;1927023;72;21555;-70
2020/12/28 12:01:17;;;;;;;6.45;2.60;;;5.90;99.90;;;;;;1994869;71;21493;-72
2020/12/28 12:03:48;;;;;;;8.60;3.00;;;5.90;99.90;;;;;;1989778;71;21510;-76
2020/12/28 12:06:11;;;;;;;5.20;3.27;;;6.00;99.90;;;;;;1952984;70;21125;-75
2020/12/28 12:08:37;;;;;;;5.33;2.60;;;6.00;99.90;;;;;;1988601;71;21074;-80
2020/12/28 12:11:03;;;;;;;7.17;3.50;;;6.00;99.90;;;;;;1967011;70;21458;-75
2020/12/28 12:13:30;;;;;;;6.62;3.33;;;5.90;99.90;;;;;;1962475;71;21466;-77
2020/12/28 12:15:56;;;;;;;8.28;2.70;;;5.90;99.90;;;;;;1936875;71;21058;-76
2020/12/28 12:18:23;;;;;;;9.38;2.83;;;5.80;99.90;;;;;;1942729;71;21116;-77
2020/12/28 12:20:49;;;;;;;7.15;2.60;;;5.70;99.90;;;;;;1928804;71;21559;-78
2020/12/28 12:23:15;;;;;;;3.10;2.40;;;5.70;99.90;;;;;;1939145;71;21019;-77
2020/12/28 12:25:41;;;;;;;4.58;2.95;;;5.80;99.90;;;;;;1963830;70;21022;-78
2020/12/28 12:28:08;;;;;;;5.22;2.95;;;5.70;99.90;;;;;;1959025;70;21046;-77
2020/12/28 12:30:34;;;;;;;6.62;3.45;;;5.70;99.90;;;;;;1941822;71;21180;-76
2020/12/28 12:33:00;;;;;;;5.03;2.77;;;5.80;99.90;;;;;;1986360;71;21115;-76
2020/12/28 12:35:26;;;;;;;7.28;3.05;;;5.80;99.90;;;;;;1959515;71;21058;-76
2020/12/28 12:37:52;;;;;;;4.90;2.83;;;5.80;99.90;;;;;;1943674;71;21018;-75
2020/12/28 12:40:18;;;;;;;6.28;2.83;;;5.80;99.90;;;;;;1961400;70;21036;-78
2020/12/28 12:42:44;;;;;;;6.90;3.77;;;5.70;99.90;;;;;;1926887;71;21136;-77
2020/12/28 12:45:10;;;;;;;4.67;2.65;;;5.70;99.90;;;;;;1944487;71;21063;-76
2020/12/28 12:47:36;;;;;;;8.40;2.80;;;5.70;99.90;;;;;;1970275;70;21144;-77
2020/12/28 12:50:04;;;;;;;3.75;2.90;;;5.70;99.90;;;;;;1953672;71;21054;-76
2020/12/28 12:52:30;;;;;;;4.65;3.33;;;5.80;99.90;;;;;;1970717;70;21065;-76